Terminal Aerodrome Forecast
Issued by NWS

Home | Current Version | Previous Version | Graphics & Text | Print | Product List | Glossary On
Versions: 1 2 3 4 5 6 7 8 9 10 11 12 13 14 15 16 17 18 19 20 21 22 23 24 25 26 27 28 29 30 31 32 33
242
FTUS43 KLOT 201735
TAFORD
TAF
KORD 201735Z 2018/2124 04011KT P6SM VCSH BKN008 OVC025
      TEMPO 2018/2020 SCT008 OVC025
     FM202000 03011KT P6SM SCT009 BKN015 OVC030
     FM210700 05007KT 3SM -DZ BR SCT005 OVC008
     FM211100 07009KT 5SM -SHRA BR FEW005 OVC008
     FM211600 10013KT P6SM SCT008 OVC015
     FM212200 07012KT P6SM VCSH SCT015 OVC025=

USA.gov is the U.S. government's official web portal to all federal, state and local government web resources and services.